KLM431 ENBR-EHAM
Flight info
| Callsign | KLM431 |
|---|---|
| Flight time | 1h 22m |
| Altitude | 37000 |
| Route | TUXIL DCT ZOL DCT ATNAK/N0442F380 DCT TIPAN DCT WECOW DCT LARDI DCT TOPPA |
| Aircraft | A21N/M-SDE2E3FGHIRWXY/LB1 |
Departure
| Time | 2026-05-01 11:45 |
|---|---|
| Airport | Bergen Airport, Flesland (ENBR) |
Arrival
| Time | 2026-05-01 13:07 |
|---|---|
| Airport | Amsterdam Airport Schiphol (EHAM) |
| Time | Latitude | Longitude | Altitude | Speed | Heading |
|---|---|---|---|---|---|
| 2026-05-01 11:26 | 60.28892 | 5.22529 | 153 ft | 0 kts | 102° |
| 2026-05-01 11:36 | 60.28892 | 5.22525 | 153 ft | 3 kts | 102° |
| 2026-05-01 11:37 | 60.28896 | 5.22490 | 153 ft | 3 kts | 102° |
| 2026-05-01 11:37 | 60.28900 | 5.22455 | 153 ft | 3 kts | 92° |
| 2026-05-01 11:37 | 60.28901 | 5.22420 | 153 ft | 3 kts | 92° |
| 2026-05-01 11:37 | 60.28901 | 5.22385 | 153 ft | 2 kts | 92° |
| 2026-05-01 11:38 | 60.28902 | 5.22377 | 153 ft | 0 kts | 92° |
| 2026-05-01 11:38 | 60.28902 | 5.22378 | 153 ft | 0 kts | 89° |
| 2026-05-01 11:39 | 60.28905 | 5.22385 | 153 ft | 0 kts | 41° |
| 2026-05-01 11:39 | 60.28919 | 5.22386 | 154 ft | 5 kts | 2° |
| 2026-05-01 11:39 | 60.28980 | 5.22378 | 154 ft | 10 kts | 353° |
| 2026-05-01 11:39 | 60.29044 | 5.22358 | 155 ft | 9 kts | 347° |
| 2026-05-01 11:40 | 60.29071 | 5.22319 | 155 ft | 3 kts | 301° |
| 2026-05-01 11:40 | 60.29082 | 5.22284 | 155 ft | 4 kts | 305° |
| 2026-05-01 11:40 | 60.29140 | 5.22212 | 155 ft | 15 kts | 346° |
| 2026-05-01 11:40 | 60.29263 | 5.22169 | 157 ft | 14 kts | 350° |
| 2026-05-01 11:41 | 60.29369 | 5.22128 | 158 ft | 16 kts | 349° |
| 2026-05-01 11:41 | 60.29476 | 5.22093 | 159 ft | 15 kts | 351° |
| 2026-05-01 11:41 | 60.29584 | 5.22058 | 159 ft | 19 kts | 350° |
| 2026-05-01 11:41 | 60.29723 | 5.22009 | 160 ft | 20 kts | 350° |
| 2026-05-01 11:42 | 60.29860 | 5.21961 | 162 ft | 20 kts | 351° |
| 2026-05-01 11:42 | 60.29994 | 5.21920 | 163 ft | 19 kts | 351° |
| 2026-05-01 11:42 | 60.30122 | 5.21873 | 164 ft | 18 kts | 349° |
| 2026-05-01 11:42 | 60.30251 | 5.21831 | 165 ft | 20 kts | 351° |
| 2026-05-01 11:43 | 60.30382 | 5.21790 | 166 ft | 19 kts | 348° |
| 2026-05-01 11:43 | 60.30454 | 5.21684 | 167 ft | 7 kts | 276° |
| 2026-05-01 11:43 | 60.30451 | 5.21663 | 167 ft | 0 kts | 250° |
| 2026-05-01 11:44 | 60.30450 | 5.21655 | 167 ft | 7 kts | 246° |
| 2026-05-01 11:44 | 60.30321 | 5.21497 | 164 ft | 44 kts | 180° |
| 2026-05-01 11:44 | 60.29777 | 5.21657 | 165 ft | 117 kts | 170° |
| 2026-05-01 11:44 | 60.28836 | 5.21962 | 535 ft | 147 kts | 172° |
| 2026-05-01 11:45 | 60.27729 | 5.22319 | 1041 ft | 174 kts | 172° |
| 2026-05-01 11:45 | 60.26459 | 5.22754 | 1614 ft | 197 kts | 172° |
| 2026-05-01 11:45 | 60.25045 | 5.23234 | 2228 ft | 215 kts | 173° |
| 2026-05-01 11:45 | 60.23536 | 5.23746 | 3062 ft | 224 kts | 173° |
| 2026-05-01 11:46 | 60.21984 | 5.24268 | 3982 ft | 230 kts | 174° |
| 2026-05-01 11:46 | 60.20375 | 5.24808 | 4952 ft | 236 kts | 175° |
| 2026-05-01 11:46 | 60.18752 | 5.25349 | 5617 ft | 243 kts | 176° |
| 2026-05-01 11:46 | 60.17073 | 5.25908 | 5939 ft | 246 kts | 176° |
| 2026-05-01 11:47 | 60.15391 | 5.26470 | 5992 ft | 246 kts | 176° |
| 2026-05-01 11:47 | 60.13689 | 5.27038 | 5991 ft | 247 kts | 176° |
| 2026-05-01 11:47 | 60.11983 | 5.27605 | 6208 ft | 250 kts | 176° |
| 2026-05-01 11:47 | 60.10248 | 5.28177 | 6982 ft | 254 kts | 178° |
| 2026-05-01 11:48 | 60.08500 | 5.28694 | 7913 ft | 254 kts | 179° |
| 2026-05-01 11:48 | 60.06739 | 5.29178 | 8827 ft | 256 kts | 179° |
| 2026-05-01 11:48 | 60.04962 | 5.29656 | 9650 ft | 259 kts | 179° |
| 2026-05-01 11:48 | 60.03169 | 5.30139 | 10405 ft | 262 kts | 179° |
| 2026-05-01 11:49 | 60.01295 | 5.30631 | 10782 ft | 282 kts | 179° |
| 2026-05-01 11:49 | 59.99269 | 5.31154 | 11089 ft | 304 kts | 179° |
| 2026-05-01 11:49 | 59.97125 | 5.31716 | 11402 ft | 324 kts | 179° |
| 2026-05-01 11:49 | 59.94838 | 5.32326 | 11892 ft | 337 kts | 178° |
| 2026-05-01 11:50 | 59.92496 | 5.32955 | 12556 ft | 345 kts | 178° |
| 2026-05-01 11:50 | 59.90087 | 5.33605 | 13310 ft | 350 kts | 178° |
| 2026-05-01 11:50 | 59.87658 | 5.34255 | 14041 ft | 355 kts | 178° |
| 2026-05-01 11:50 | 59.85188 | 5.34915 | 14693 ft | 360 kts | 178° |
| 2026-05-01 11:51 | 59.82681 | 5.35581 | 15331 ft | 366 kts | 178° |
| 2026-05-01 11:51 | 59.80140 | 5.36224 | 15956 ft | 370 kts | 180° |
| 2026-05-01 11:51 | 59.77565 | 5.36709 | 16572 ft | 374 kts | 181° |
| 2026-05-01 11:51 | 59.74960 | 5.37142 | 17187 ft | 378 kts | 181° |
| 2026-05-01 11:52 | 59.72320 | 5.37574 | 17789 ft | 382 kts | 180° |
| 2026-05-01 11:52 | 59.69655 | 5.38010 | 18387 ft | 387 kts | 180° |
| 2026-05-01 11:52 | 59.66990 | 5.38447 | 18913 ft | 391 kts | 180° |
| 2026-05-01 11:52 | 59.64274 | 5.38950 | 19465 ft | 394 kts | 179° |
| 2026-05-01 11:53 | 59.61538 | 5.39611 | 20022 ft | 397 kts | 178° |
| 2026-05-01 11:53 | 59.58789 | 5.40313 | 20583 ft | 399 kts | 178° |
| 2026-05-01 11:53 | 59.56011 | 5.41025 | 21101 ft | 402 kts | 178° |
| 2026-05-01 11:53 | 59.53234 | 5.41733 | 21614 ft | 404 kts | 178° |
| 2026-05-01 11:54 | 59.50433 | 5.42443 | 22141 ft | 407 kts | 178° |
| 2026-05-01 11:54 | 59.47609 | 5.43157 | 22636 ft | 410 kts | 178° |
| 2026-05-01 11:54 | 59.44766 | 5.43874 | 23150 ft | 412 kts | 178° |
| 2026-05-01 11:54 | 59.41946 | 5.44583 | 23640 ft | 415 kts | 178° |
| 2026-05-01 11:55 | 59.39070 | 5.45381 | 24077 ft | 419 kts | 176° |
| 2026-05-01 11:55 | 59.36189 | 5.46343 | 24479 ft | 422 kts | 175° |
| 2026-05-01 11:55 | 59.33289 | 5.47402 | 24882 ft | 425 kts | 174° |
| 2026-05-01 11:55 | 59.30375 | 5.48501 | 25278 ft | 427 kts | 174° |
| 2026-05-01 11:56 | 59.27448 | 5.49608 | 25672 ft | 429 kts | 174° |
| 2026-05-01 11:56 | 59.24503 | 5.50710 | 26044 ft | 431 kts | 174° |
| 2026-05-01 11:56 | 59.21547 | 5.51802 | 26418 ft | 433 kts | 174° |
| 2026-05-01 11:56 | 59.18578 | 5.52886 | 26756 ft | 435 kts | 174° |
| 2026-05-01 11:57 | 59.15586 | 5.53969 | 27107 ft | 437 kts | 174° |
| 2026-05-01 11:57 | 59.13600 | 5.54685 | 27328 ft | 439 kts | 174° |
| 2026-05-01 11:57 | 59.09567 | 5.56134 | 27796 ft | 441 kts | 174° |
| 2026-05-01 11:57 | 59.06558 | 5.57215 | 28273 ft | 439 kts | 174° |
| 2026-05-01 11:58 | 59.03595 | 5.58279 | 28745 ft | 437 kts | 174° |
| 2026-05-01 11:58 | 59.00606 | 5.59350 | 29220 ft | 436 kts | 174° |
| 2026-05-01 11:58 | 58.94653 | 5.61476 | 30098 ft | 433 kts | 174° |
| 2026-05-01 11:59 | 58.91683 | 5.62527 | 30482 ft | 432 kts | 175° |
| 2026-05-01 11:59 | 58.88718 | 5.63188 | 30757 ft | 428 kts | 181° |
| 2026-05-01 11:59 | 58.85751 | 5.63102 | 31051 ft | 423 kts | 189° |
| 2026-05-01 12:00 | 58.79970 | 5.61469 | 31753 ft | 418 kts | 194° |
| 2026-05-01 12:00 | 58.77111 | 5.60450 | 32091 ft | 416 kts | 194° |
| 2026-05-01 12:00 | 58.71469 | 5.58346 | 32712 ft | 414 kts | 194° |
| 2026-05-01 12:01 | 58.68639 | 5.57298 | 33016 ft | 414 kts | 194° |
| 2026-05-01 12:01 | 58.65810 | 5.56265 | 33295 ft | 413 kts | 194° |
| 2026-05-01 12:01 | 58.62988 | 5.55250 | 33577 ft | 412 kts | 194° |
| 2026-05-01 12:01 | 58.60167 | 5.54244 | 33847 ft | 411 kts | 194° |
| 2026-05-01 12:02 | 58.57358 | 5.53248 | 34116 ft | 411 kts | 194° |
| 2026-05-01 12:02 | 58.55497 | 5.52591 | 34280 ft | 410 kts | 194° |
| 2026-05-01 12:02 | 58.52691 | 5.51602 | 34496 ft | 410 kts | 194° |
| 2026-05-01 12:02 | 58.49879 | 5.50612 | 34672 ft | 410 kts | 194° |
| 2026-05-01 12:03 | 58.47073 | 5.49625 | 34853 ft | 410 kts | 194° |
| 2026-05-01 12:03 | 58.44268 | 5.48640 | 35020 ft | 410 kts | 194° |
| 2026-05-01 12:03 | 58.41456 | 5.47653 | 35189 ft | 410 kts | 194° |
| 2026-05-01 12:03 | 58.38647 | 5.46669 | 35343 ft | 410 kts | 194° |
| 2026-05-01 12:04 | 58.35837 | 5.45687 | 35492 ft | 410 kts | 194° |
| 2026-05-01 12:04 | 58.33063 | 5.44717 | 35633 ft | 410 kts | 194° |
| 2026-05-01 12:04 | 58.30251 | 5.43737 | 35788 ft | 411 kts | 194° |
| 2026-05-01 12:04 | 58.27437 | 5.42758 | 35936 ft | 411 kts | 194° |
| 2026-05-01 12:05 | 58.24626 | 5.41781 | 36086 ft | 411 kts | 194° |
| 2026-05-01 12:05 | 58.19008 | 5.39834 | 36363 ft | 411 kts | 194° |
| 2026-05-01 12:05 | 58.16192 | 5.38860 | 36499 ft | 411 kts | 194° |
| 2026-05-01 12:06 | 58.13381 | 5.37890 | 36634 ft | 411 kts | 194° |
| 2026-05-01 12:06 | 58.10566 | 5.36920 | 36766 ft | 411 kts | 194° |
| 2026-05-01 12:06 | 58.04976 | 5.34996 | 36950 ft | 412 kts | 193° |
| 2026-05-01 12:07 | 58.02120 | 5.34017 | 37056 ft | 412 kts | 193° |
| 2026-05-01 12:07 | 57.99301 | 5.33051 | 37167 ft | 412 kts | 193° |
| 2026-05-01 12:07 | 57.93681 | 5.31131 | 37285 ft | 414 kts | 193° |
| 2026-05-01 12:08 | 57.87999 | 5.29196 | 37283 ft | 414 kts | 193° |
| 2026-05-01 12:08 | 57.82323 | 5.27270 | 37284 ft | 414 kts | 193° |
| 2026-05-01 12:09 | 57.76686 | 5.25362 | 37287 ft | 414 kts | 193° |
| 2026-05-01 12:09 | 57.71016 | 5.23450 | 37287 ft | 414 kts | 193° |
| 2026-05-01 12:10 | 57.62503 | 5.20590 | 37287 ft | 414 kts | 193° |
| 2026-05-01 12:11 | 57.53992 | 5.17744 | 37269 ft | 414 kts | 193° |
| 2026-05-01 12:11 | 57.48308 | 5.15849 | 37290 ft | 415 kts | 193° |
| 2026-05-01 12:12 | 57.42616 | 5.13960 | 37287 ft | 416 kts | 193° |
| 2026-05-01 12:12 | 57.36920 | 5.12075 | 37289 ft | 416 kts | 193° |
| 2026-05-01 12:13 | 57.31257 | 5.10207 | 37289 ft | 415 kts | 193° |
| 2026-05-01 12:13 | 57.25547 | 5.08329 | 37289 ft | 416 kts | 193° |
| 2026-05-01 12:14 | 57.19843 | 5.06458 | 37292 ft | 416 kts | 193° |
| 2026-05-01 12:14 | 57.14130 | 5.04591 | 37292 ft | 416 kts | 193° |
| 2026-05-01 12:15 | 57.08459 | 5.02744 | 37295 ft | 416 kts | 192° |
| 2026-05-01 12:15 | 57.02754 | 5.00891 | 37298 ft | 416 kts | 192° |
| 2026-05-01 12:16 | 56.97020 | 4.99142 | 37295 ft | 417 kts | 191° |
| 2026-05-01 12:16 | 56.91276 | 4.97619 | 37301 ft | 417 kts | 190° |
| 2026-05-01 12:17 | 56.85520 | 4.96135 | 37298 ft | 417 kts | 190° |
| 2026-05-01 12:17 | 56.79762 | 4.94635 | 37295 ft | 417 kts | 191° |
| 2026-05-01 12:18 | 56.74007 | 4.93124 | 37287 ft | 417 kts | 190° |
| 2026-05-01 12:18 | 56.68289 | 4.91622 | 37297 ft | 417 kts | 190° |
| 2026-05-01 12:19 | 56.62539 | 4.90118 | 37297 ft | 418 kts | 190° |
| 2026-05-01 12:19 | 56.56789 | 4.88618 | 37299 ft | 418 kts | 190° |
| 2026-05-01 12:20 | 56.51036 | 4.87123 | 37300 ft | 417 kts | 190° |
| 2026-05-01 12:20 | 56.45279 | 4.85631 | 37298 ft | 418 kts | 190° |
| 2026-05-01 12:21 | 56.39521 | 4.84143 | 37297 ft | 418 kts | 190° |
| 2026-05-01 12:21 | 56.33763 | 4.82661 | 37296 ft | 418 kts | 190° |
| 2026-05-01 12:22 | 56.28000 | 4.81181 | 37295 ft | 418 kts | 190° |
| 2026-05-01 12:22 | 56.22274 | 4.79716 | 37298 ft | 418 kts | 190° |
| 2026-05-01 12:23 | 56.16508 | 4.78244 | 37294 ft | 418 kts | 189° |
| 2026-05-01 12:23 | 56.10735 | 4.76775 | 37294 ft | 419 kts | 189° |
| 2026-05-01 12:24 | 56.04962 | 4.75311 | 37292 ft | 419 kts | 189° |
| 2026-05-01 12:24 | 55.99231 | 4.73862 | 37296 ft | 419 kts | 189° |
| 2026-05-01 12:25 | 55.90575 | 4.71681 | 37295 ft | 418 kts | 189° |
| 2026-05-01 12:26 | 55.84800 | 4.70231 | 37292 ft | 418 kts | 189° |
| 2026-05-01 12:26 | 55.76150 | 4.68068 | 37295 ft | 418 kts | 189° |
| 2026-05-01 12:27 | 55.67497 | 4.65914 | 37290 ft | 419 kts | 189° |
| 2026-05-01 12:28 | 55.58868 | 4.63775 | 37299 ft | 420 kts | 189° |
| 2026-05-01 12:29 | 55.50177 | 4.61631 | 37298 ft | 420 kts | 189° |
| 2026-05-01 12:29 | 55.41498 | 4.59499 | 37297 ft | 420 kts | 189° |
| 2026-05-01 12:30 | 55.32809 | 4.57374 | 37296 ft | 420 kts | 189° |
| 2026-05-01 12:31 | 55.27044 | 4.55970 | 37296 ft | 420 kts | 189° |
| 2026-05-01 12:31 | 55.21276 | 4.54353 | 37297 ft | 419 kts | 195° |
| 2026-05-01 12:32 | 55.15744 | 4.51185 | 37291 ft | 418 kts | 201° |
| 2026-05-01 12:32 | 55.07563 | 4.45765 | 37294 ft | 419 kts | 202° |
| 2026-05-01 12:33 | 55.02113 | 4.42103 | 37291 ft | 419 kts | 201° |
| 2026-05-01 12:33 | 54.96653 | 4.38471 | 37297 ft | 419 kts | 201° |
| 2026-05-01 12:34 | 54.91189 | 4.34863 | 37294 ft | 419 kts | 201° |
| 2026-05-01 12:34 | 54.85785 | 4.31309 | 37284 ft | 417 kts | 201° |
| 2026-05-01 12:35 | 54.80355 | 4.27747 | 37243 ft | 416 kts | 201° |
| 2026-05-01 12:35 | 54.77655 | 4.25980 | 36704 ft | 413 kts | 201° |
| 2026-05-01 12:35 | 54.74964 | 4.24221 | 36034 ft | 413 kts | 201° |
| 2026-05-01 12:36 | 54.72275 | 4.22465 | 35347 ft | 414 kts | 201° |
| 2026-05-01 12:36 | 54.69573 | 4.20703 | 34645 ft | 415 kts | 201° |
| 2026-05-01 12:36 | 54.66867 | 4.18941 | 33876 ft | 416 kts | 201° |
| 2026-05-01 12:36 | 54.64142 | 4.17170 | 33025 ft | 419 kts | 201° |
| 2026-05-01 12:37 | 54.61407 | 4.15394 | 32238 ft | 420 kts | 201° |
| 2026-05-01 12:37 | 54.58700 | 4.13640 | 31467 ft | 422 kts | 201° |
| 2026-05-01 12:37 | 54.55912 | 4.11835 | 30676 ft | 423 kts | 201° |
| 2026-05-01 12:37 | 54.53155 | 4.10053 | 29815 ft | 424 kts | 201° |
| 2026-05-01 12:38 | 54.50382 | 4.08264 | 28879 ft | 426 kts | 201° |
| 2026-05-01 12:38 | 54.47640 | 4.06496 | 28038 ft | 426 kts | 201° |
| 2026-05-01 12:38 | 54.44869 | 4.04713 | 27319 ft | 423 kts | 201° |
| 2026-05-01 12:38 | 54.42117 | 4.02944 | 26652 ft | 419 kts | 200° |
| 2026-05-01 12:39 | 54.39399 | 4.01200 | 26017 ft | 415 kts | 200° |
| 2026-05-01 12:39 | 54.36698 | 3.99470 | 25508 ft | 411 kts | 200° |
| 2026-05-01 12:39 | 54.34022 | 3.97757 | 25308 ft | 410 kts | 200° |
| 2026-05-01 12:39 | 54.31340 | 3.96043 | 25273 ft | 411 kts | 200° |
| 2026-05-01 12:40 | 54.28666 | 3.94337 | 25278 ft | 411 kts | 200° |
| 2026-05-01 12:40 | 54.25984 | 3.92628 | 25278 ft | 411 kts | 200° |
| 2026-05-01 12:40 | 54.23340 | 3.90944 | 25274 ft | 411 kts | 200° |
| 2026-05-01 12:40 | 54.20665 | 3.89244 | 25274 ft | 410 kts | 200° |
| 2026-05-01 12:41 | 54.17974 | 3.87537 | 25274 ft | 411 kts | 200° |
| 2026-05-01 12:41 | 54.15294 | 3.85838 | 25273 ft | 411 kts | 200° |
| 2026-05-01 12:41 | 54.12615 | 3.84143 | 25273 ft | 411 kts | 200° |
| 2026-05-01 12:41 | 54.09931 | 3.82446 | 25274 ft | 411 kts | 200° |
| 2026-05-01 12:42 | 54.07242 | 3.80750 | 25271 ft | 411 kts | 200° |
| 2026-05-01 12:42 | 54.04554 | 3.79056 | 25272 ft | 411 kts | 200° |
| 2026-05-01 12:42 | 54.01909 | 3.77391 | 25269 ft | 411 kts | 200° |
| 2026-05-01 12:42 | 53.99224 | 3.75703 | 25272 ft | 411 kts | 200° |
| 2026-05-01 12:43 | 53.96542 | 3.74020 | 25265 ft | 411 kts | 200° |
| 2026-05-01 12:43 | 53.93855 | 3.72336 | 25268 ft | 411 kts | 200° |
| 2026-05-01 12:43 | 53.91166 | 3.70653 | 25266 ft | 412 kts | 200° |
| 2026-05-01 12:43 | 53.88461 | 3.68962 | 25263 ft | 412 kts | 200° |
| 2026-05-01 12:44 | 53.85783 | 3.67290 | 25276 ft | 412 kts | 200° |
| 2026-05-01 12:44 | 53.83087 | 3.65610 | 25276 ft | 412 kts | 200° |
| 2026-05-01 12:44 | 53.77730 | 3.62276 | 25265 ft | 409 kts | 200° |
| 2026-05-01 12:45 | 53.72408 | 3.58975 | 24815 ft | 404 kts | 199° |
| 2026-05-01 12:45 | 53.69776 | 3.57531 | 24170 ft | 401 kts | 193° |
| 2026-05-01 12:45 | 53.67052 | 3.56745 | 23313 ft | 393 kts | 184° |
| 2026-05-01 12:46 | 53.64303 | 3.56849 | 22138 ft | 389 kts | 172° |
| 2026-05-01 12:46 | 53.61734 | 3.57921 | 21060 ft | 384 kts | 160° |
| 2026-05-01 12:46 | 53.59352 | 3.59905 | 20022 ft | 379 kts | 151° |
| 2026-05-01 12:46 | 53.57129 | 3.62245 | 19017 ft | 373 kts | 149° |
| 2026-05-01 12:47 | 53.54967 | 3.64602 | 17904 ft | 368 kts | 149° |
| 2026-05-01 12:47 | 53.52838 | 3.66921 | 16834 ft | 361 kts | 149° |
| 2026-05-01 12:47 | 53.50746 | 3.69187 | 15825 ft | 353 kts | 149° |
| 2026-05-01 12:47 | 53.48700 | 3.71391 | 14840 ft | 346 kts | 149° |
| 2026-05-01 12:48 | 53.46684 | 3.73554 | 13870 ft | 341 kts | 149° |
| 2026-05-01 12:48 | 53.44707 | 3.75671 | 13105 ft | 340 kts | 149° |
| 2026-05-01 12:48 | 53.42715 | 3.77798 | 12435 ft | 338 kts | 149° |
| 2026-05-01 12:48 | 53.40740 | 3.79905 | 11767 ft | 336 kts | 149° |
| 2026-05-01 12:49 | 53.38773 | 3.82000 | 11106 ft | 334 kts | 149° |
| 2026-05-01 12:49 | 53.36822 | 3.84076 | 10567 ft | 329 kts | 149° |
| 2026-05-01 12:49 | 53.34929 | 3.86090 | 10317 ft | 315 kts | 149° |
| 2026-05-01 12:49 | 53.33115 | 3.88019 | 10096 ft | 302 kts | 149° |
| 2026-05-01 12:50 | 53.31378 | 3.89863 | 9868 ft | 289 kts | 149° |
| 2026-05-01 12:50 | 53.30270 | 3.91039 | 9710 ft | 281 kts | 149° |
| 2026-05-01 12:50 | 53.28643 | 3.92762 | 9366 ft | 273 kts | 150° |
| 2026-05-01 12:50 | 53.27045 | 3.94451 | 8936 ft | 270 kts | 150° |
| 2026-05-01 12:51 | 53.25467 | 3.96117 | 8491 ft | 267 kts | 150° |
| 2026-05-01 12:51 | 53.23896 | 3.97776 | 8036 ft | 265 kts | 150° |
| 2026-05-01 12:51 | 53.20794 | 4.01047 | 7156 ft | 262 kts | 150° |
| 2026-05-01 12:52 | 53.19257 | 4.02665 | 6741 ft | 260 kts | 150° |
| 2026-05-01 12:52 | 53.16220 | 4.05860 | 6261 ft | 257 kts | 150° |
| 2026-05-01 12:52 | 53.14699 | 4.07456 | 6260 ft | 258 kts | 150° |
| 2026-05-01 12:53 | 53.11673 | 4.10632 | 6259 ft | 255 kts | 150° |
| 2026-05-01 12:53 | 53.10192 | 4.12183 | 6266 ft | 254 kts | 150° |
| 2026-05-01 12:53 | 53.08689 | 4.13757 | 6271 ft | 254 kts | 150° |
| 2026-05-01 12:54 | 53.07191 | 4.15324 | 6270 ft | 254 kts | 150° |
| 2026-05-01 12:54 | 53.04189 | 4.18460 | 6270 ft | 255 kts | 150° |
| 2026-05-01 12:54 | 53.02688 | 4.20026 | 6267 ft | 255 kts | 150° |
| 2026-05-01 12:55 | 52.99679 | 4.23162 | 6264 ft | 255 kts | 150° |
| 2026-05-01 12:55 | 52.98168 | 4.24736 | 6249 ft | 255 kts | 150° |
| 2026-05-01 12:55 | 52.96665 | 4.26298 | 6262 ft | 255 kts | 150° |
| 2026-05-01 12:56 | 52.95160 | 4.27863 | 6259 ft | 255 kts | 150° |
| 2026-05-01 12:56 | 52.93654 | 4.29427 | 6251 ft | 255 kts | 151° |
| 2026-05-01 12:56 | 52.92150 | 4.30988 | 6264 ft | 256 kts | 150° |
| 2026-05-01 12:56 | 52.90639 | 4.32553 | 6262 ft | 256 kts | 150° |
| 2026-05-01 12:57 | 52.89128 | 4.34119 | 6250 ft | 256 kts | 150° |
| 2026-05-01 12:57 | 52.86107 | 4.37245 | 6227 ft | 255 kts | 151° |
| 2026-05-01 12:57 | 52.84623 | 4.38779 | 5842 ft | 254 kts | 151° |
| 2026-05-01 12:58 | 52.83128 | 4.40323 | 5416 ft | 252 kts | 151° |
| 2026-05-01 12:58 | 52.81652 | 4.41847 | 5001 ft | 249 kts | 151° |
| 2026-05-01 12:58 | 52.80188 | 4.43356 | 4562 ft | 247 kts | 150° |
| 2026-05-01 12:59 | 52.77302 | 4.46321 | 4133 ft | 243 kts | 151° |
| 2026-05-01 12:59 | 52.75867 | 4.47809 | 3690 ft | 243 kts | 148° |
| 2026-05-01 12:59 | 52.73091 | 4.50937 | 3012 ft | 240 kts | 147° |
| 2026-05-01 13:00 | 52.70297 | 4.54045 | 2988 ft | 244 kts | 146° |
| 2026-05-01 13:00 | 52.68950 | 4.55754 | 2987 ft | 244 kts | 143° |
| 2026-05-01 13:01 | 52.66315 | 4.59284 | 2984 ft | 244 kts | 142° |
| 2026-05-01 13:01 | 52.65010 | 4.61016 | 2986 ft | 244 kts | 142° |
| 2026-05-01 13:01 | 52.62360 | 4.64532 | 2972 ft | 244 kts | 142° |
| 2026-05-01 13:02 | 52.61040 | 4.66293 | 2991 ft | 244 kts | 142° |
| 2026-05-01 13:07 | 52.34487 | 4.71043 | -1 ft | 53 kts | 174° |
| 2026-05-01 13:07 | 52.34286 | 4.71146 | -2 ft | 21 kts | 154° |
| 2026-05-01 13:07 | 52.34202 | 4.71211 | -2 ft | 9 kts | 155° |
| 2026-05-01 13:08 | 52.34133 | 4.71258 | 1 ft | 11 kts | 165° |
| 2026-05-01 13:08 | 52.34056 | 4.71271 | 1 ft | 13 kts | 180° |
| 2026-05-01 13:08 | 52.33954 | 4.71266 | -2 ft | 16 kts | 182° |
| 2026-05-01 13:08 | 52.33842 | 4.71258 | 0 ft | 17 kts | 183° |
| 2026-05-01 13:09 | 52.33720 | 4.71245 | -1 ft | 18 kts | 184° |
| 2026-05-01 13:09 | 52.33586 | 4.71233 | -1 ft | 20 kts | 182° |
| 2026-05-01 13:09 | 52.33406 | 4.71217 | -1 ft | 31 kts | 182° |
| 2026-05-01 13:09 | 52.33354 | 4.71213 | -2 ft | 0 kts | 182° |
| 2026-05-01 13:10 | 52.33338 | 4.71212 | -2 ft | 12 kts | 182° |
| 2026-05-01 13:10 | 52.33211 | 4.71278 | 2 ft | 24 kts | 134° |
| 2026-05-01 13:10 | 52.33144 | 4.71526 | 2 ft | 22 kts | 78° |
| 2026-05-01 13:10 | 52.33097 | 4.71741 | 1 ft | 21 kts | 131° |
| 2026-05-01 13:11 | 52.32997 | 4.71928 | 1 ft | 22 kts | 130° |
| 2026-05-01 13:11 | 52.32899 | 4.72113 | 0 ft | 22 kts | 131° |
| 2026-05-01 13:11 | 52.32801 | 4.72292 | 3 ft | 20 kts | 131° |
| 2026-05-01 13:11 | 52.32707 | 4.72464 | 3 ft | 20 kts | 131° |
| 2026-05-01 13:12 | 52.32606 | 4.72623 | 0 ft | 21 kts | 138° |
| 2026-05-01 13:12 | 52.32493 | 4.72783 | 0 ft | 21 kts | 139° |
| 2026-05-01 13:12 | 52.32381 | 4.72942 | 0 ft | 21 kts | 139° |
| 2026-05-01 13:12 | 52.32269 | 4.73101 | 0 ft | 21 kts | 139° |
| 2026-05-01 13:13 | 52.32164 | 4.73250 | 3 ft | 19 kts | 140° |
| 2026-05-01 13:13 | 52.32077 | 4.73406 | 5 ft | 18 kts | 113° |
| 2026-05-01 13:13 | 52.32056 | 4.73602 | 4 ft | 18 kts | 95° |
| 2026-05-01 13:13 | 52.32045 | 4.73808 | 3 ft | 19 kts | 95° |
| 2026-05-01 13:14 | 52.32035 | 4.74038 | -2 ft | 22 kts | 92° |
| 2026-05-01 13:14 | 52.31963 | 4.74186 | -2 ft | 17 kts | 178° |
| 2026-05-01 13:14 | 52.31847 | 4.74178 | -2 ft | 17 kts | 183° |
| 2026-05-01 13:14 | 52.31712 | 4.74169 | 2 ft | 22 kts | 182° |
| 2026-05-01 13:15 | 52.31535 | 4.74154 | 1 ft | 29 kts | 185° |
| 2026-05-01 13:15 | 52.31314 | 4.74131 | 1 ft | 34 kts | 182° |
| 2026-05-01 13:15 | 52.31061 | 4.74105 | 0 ft | 39 kts | 184° |
| 2026-05-01 13:15 | 52.30792 | 4.74081 | 0 ft | 38 kts | 184° |
| 2026-05-01 13:16 | 52.30532 | 4.74057 | 1 ft | 37 kts | 184° |
| 2026-05-01 13:16 | 52.30384 | 4.74173 | 1 ft | 11 kts | 144° |
| 2026-05-01 13:16 | 52.30284 | 4.74188 | 1 ft | 17 kts | 166° |
| 2026-05-01 13:17 | 52.29973 | 4.74729 | 1 ft | 22 kts | 96° |
| 2026-05-01 13:17 | 52.29958 | 4.74969 | 1 ft | 20 kts | 117° |
| 2026-05-01 13:18 | 52.29847 | 4.75341 | 1 ft | 18 kts | 68° |
| 2026-05-01 13:18 | 52.29911 | 4.75517 | 1 ft | 18 kts | 58° |
| 2026-05-01 13:18 | 52.29988 | 4.75718 | 1 ft | 27 kts | 58° |
| 2026-05-01 13:18 | 52.30101 | 4.76016 | 1 ft | 31 kts | 58° |
| 2026-05-01 13:19 | 52.30215 | 4.76315 | 1 ft | 31 kts | 57° |
| 2026-05-01 13:19 | 52.30328 | 4.76608 | 1 ft | 30 kts | 58° |
| 2026-05-01 13:19 | 52.30555 | 4.76925 | 1 ft | 17 kts | 327° |
| 2026-05-01 13:20 | 52.30623 | 4.76795 | 1 ft | 11 kts | 292° |
| 2026-05-01 13:20 | 52.30615 | 4.76746 | 1 ft | 11 kts | 243° |
| 2026-05-01 13:20 | 52.30581 | 4.76701 | 1 ft | 0 kts | 215° |